createdAt,value
2019-05-30T00:01:34.394Z,0.90
2019-05-30T00:04:04.903Z,0.90
2019-05-30T00:06:34.505Z,0.80
2019-05-30T00:09:08.209Z,0.60
2019-05-30T00:11:37.673Z,0.80
2019-05-30T00:14:07.112Z,0.90
2019-05-30T00:16:38.199Z,0.90
2019-05-30T00:19:07.645Z,0.70
2019-05-30T00:21:37.107Z,0.90
2019-05-30T00:24:06.570Z,1.10
2019-05-30T00:26:36.085Z,0.70
2019-05-30T00:29:06.653Z,0.70
2019-05-30T00:31:36.257Z,0.87
2019-05-30T00:34:07.041Z,0.93
2019-05-30T00:36:36.575Z,0.90
2019-05-30T00:39:07.836Z,1.10
2019-05-30T00:41:37.382Z,0.90
2019-05-30T00:44:06.888Z,1.20
2019-05-30T00:46:36.358Z,0.70
2019-05-30T00:49:06.607Z,1.20
2019-05-30T00:51:36.163Z,1.00
2019-05-30T00:54:06.874Z,1.30
2019-05-30T00:56:36.468Z,1.10
2019-05-30T00:59:07.063Z,1.00
2019-05-30T01:01:36.548Z,0.90
2019-05-30T01:04:06.990Z,0.90
2019-05-30T01:06:36.550Z,1.00
2019-05-30T01:09:07.444Z,1.17
2019-05-30T01:11:37.031Z,1.00
2019-05-30T01:14:07.519Z,1.40
2019-05-30T01:16:38.176Z,1.20
2019-05-30T01:19:07.617Z,1.20
2019-05-30T01:21:38.217Z,1.20
2019-05-30T01:24:08.634Z,1.13
2019-05-30T01:26:38.093Z,1.10
2019-05-30T01:29:07.806Z,1.27
2019-05-30T01:31:37.414Z,1.20
2019-05-30T01:34:07.937Z,1.33
2019-05-30T01:36:37.523Z,1.50
2019-05-30T01:39:08.139Z,1.00
2019-05-30T01:41:37.748Z,1.30
2019-05-30T01:44:08.371Z,1.10
2019-05-30T01:46:37.931Z,1.53
2019-05-30T01:49:08.777Z,1.23
2019-05-30T01:51:38.247Z,1.30
2019-05-30T01:54:08.691Z,1.40
2019-05-30T01:56:38.311Z,1.40
2019-05-30T01:59:08.803Z,1.40
2019-05-30T02:01:38.427Z,1.30
2019-05-30T02:04:09.323Z,1.60
2019-05-30T02:06:38.918Z,1.43
2019-05-30T02:09:10.233Z,1.63
2019-05-30T02:11:39.581Z,1.43
2019-05-30T02:14:09.965Z,1.70
2019-05-30T02:16:39.606Z,1.70
2019-05-30T02:19:10.569Z,1.67
2019-05-30T02:21:40.332Z,1.40
2019-05-30T02:24:12.029Z,1.60
2019-05-30T02:26:41.119Z,1.83
2019-05-30T02:29:11.634Z,2.37
2019-05-30T02:31:41.102Z,2.03
2019-05-30T02:34:12.158Z,1.53
2019-05-30T02:36:41.777Z,1.80
2019-05-30T02:39:11.994Z,1.77
2019-05-30T02:41:41.815Z,2.03
2019-05-30T02:44:12.432Z,1.63
2019-05-30T02:46:42.106Z,1.83
2019-05-30T02:49:13.741Z,1.93
2019-05-30T02:51:42.714Z,2.30
2019-05-30T02:54:13.215Z,2.07
2019-05-30T02:56:43.972Z,2.03
2019-05-30T02:59:13.987Z,2.13
2019-05-30T03:02:00.126Z,2.07
2019-05-30T03:04:14.579Z,2.30
2019-05-30T03:06:44.268Z,2.37
2019-05-30T03:09:13.737Z,2.33
2019-05-30T03:11:43.292Z,2.50
2019-05-30T03:14:19.135Z,2.40
2019-05-30T03:16:45.022Z,2.70
2019-05-30T03:19:14.559Z,2.60
2019-05-30T03:21:44.081Z,2.90
2019-05-30T03:24:14.331Z,3.60
2019-05-30T03:26:44.018Z,2.77
2019-05-30T03:29:14.397Z,2.50
2019-05-30T03:31:46.643Z,2.70
2019-05-30T03:34:26.183Z,2.47
2019-05-30T03:36:47.334Z,2.77
2019-05-30T03:39:16.850Z,2.83
2019-05-30T03:41:46.294Z,2.63
2019-05-30T03:44:16.004Z,2.83
2019-05-30T03:46:51.234Z,3.00
2019-05-30T03:49:23.772Z,2.57
2019-05-30T03:51:55.424Z,2.73
2019-05-30T03:54:26.410Z,2.90
2019-05-30T03:56:58.938Z,2.67
2019-05-30T03:59:31.487Z,2.60
2019-05-30T04:02:13.984Z,3.03
2019-05-30T04:04:46.962Z,2.77
2019-05-30T04:07:19.658Z,3.07
2019-05-30T04:09:51.970Z,3.37
2019-05-30T04:12:27.795Z,3.57
2019-05-30T04:15:02.855Z,3.23
2019-05-30T04:17:32.302Z,3.00
2019-05-30T04:20:01.767Z,3.57
2019-05-30T04:22:31.284Z,3.03
2019-05-30T04:25:00.755Z,3.40
2019-05-30T04:27:30.205Z,3.37
2019-05-30T04:29:59.678Z,3.13
2019-05-30T04:32:29.113Z,3.00
2019-05-30T04:34:58.583Z,2.67
2019-05-30T04:37:28.025Z,2.83
2019-05-30T04:39:57.486Z,3.20
2019-05-30T04:42:26.946Z,2.77
2019-05-30T04:44:56.398Z,2.77
2019-05-30T04:47:25.850Z,3.00
2019-05-30T04:49:55.324Z,3.07
2019-05-30T04:52:25.170Z,3.07
2019-05-30T04:54:54.733Z,3.00
2019-05-30T04:57:26.981Z,3.00
2019-05-30T04:59:55.270Z,2.97
2019-05-30T05:02:25.074Z,3.00
2019-05-30T05:04:54.662Z,2.60
2019-05-30T05:07:24.139Z,3.00
2019-05-30T05:09:53.659Z,3.07
2019-05-30T05:12:23.461Z,3.10
2019-05-30T05:14:53.331Z,3.17
2019-05-30T05:17:23.191Z,3.40
2019-05-30T05:19:52.749Z,2.80
2019-05-30T05:22:23.235Z,3.43
2019-05-30T05:24:52.874Z,2.97
2019-05-30T05:27:22.313Z,3.60
2019-05-30T05:29:51.781Z,3.00
2019-05-30T05:32:22.556Z,2.90
2019-05-30T05:34:52.293Z,3.00
2019-05-30T05:37:21.759Z,2.67
2019-05-30T05:39:52.701Z,2.50
2019-05-30T05:42:22.603Z,2.80
2019-05-30T05:44:52.506Z,2.80
2019-05-30T05:47:22.811Z,3.00
2019-05-30T05:49:52.325Z,3.10
2019-05-30T05:52:22.740Z,2.60
2019-05-30T05:54:52.241Z,2.70
2019-05-30T05:57:22.850Z,2.43
2019-05-30T05:59:52.433Z,2.80
2019-05-30T06:02:23.135Z,2.83
2019-05-30T06:04:52.751Z,2.70
2019-05-30T06:07:22.465Z,2.70
2019-05-30T06:09:53.046Z,2.80
2019-05-30T06:12:23.710Z,2.53
2019-05-30T06:14:54.334Z,2.60
2019-05-30T06:17:24.919Z,2.50
2019-05-30T06:19:54.542Z,2.83
2019-05-30T06:22:24.001Z,2.87
2019-05-30T06:24:53.462Z,2.60
2019-05-30T06:27:23.916Z,2.40
2019-05-30T06:29:53.569Z,3.30
2019-05-30T06:32:23.054Z,2.17
2019-05-30T06:34:52.511Z,2.40
2019-05-30T06:37:23.179Z,2.83
2019-05-30T06:39:52.700Z,2.77
2019-05-30T06:42:22.145Z,2.30
2019-05-30T06:44:51.613Z,2.67
2019-05-30T06:47:22.110Z,2.70
2019-05-30T06:49:51.739Z,2.25
2019-05-30T06:52:21.186Z,2.40
2019-05-30T06:54:50.726Z,2.25
2019-05-30T06:57:21.111Z,2.52
2019-05-30T06:59:50.711Z,2.67
2019-05-30T07:02:20.164Z,2.70
2019-05-30T07:04:52.099Z,2.90
2019-05-30T07:07:20.810Z,2.87
2019-05-30T07:09:50.479Z,2.40
2019-05-30T07:12:19.929Z,2.17
2019-05-30T07:14:49.373Z,2.67
2019-05-30T07:17:18.848Z,2.80
2019-05-30T07:19:48.366Z,2.50
2019-05-30T07:22:17.830Z,2.45
2019-05-30T07:24:47.275Z,2.92
2019-05-30T07:27:16.818Z,3.25
2019-05-30T07:29:46.270Z,2.50
2019-05-30T07:32:15.733Z,2.33
2019-05-30T07:34:46.154Z,2.70
2019-05-30T07:37:15.760Z,2.72
2019-05-30T07:39:45.218Z,2.42
2019-05-30T07:42:14.666Z,2.27
2019-05-30T07:44:44.109Z,2.90
2019-05-30T07:47:13.578Z,2.77
2019-05-30T07:49:43.023Z,2.62
2019-05-30T07:52:12.490Z,2.30
2019-05-30T07:54:41.936Z,2.37
2019-05-30T07:57:11.402Z,2.77
2019-05-30T07:59:40.850Z,2.95
2019-05-30T08:02:10.321Z,2.12
2019-05-30T08:04:39.771Z,2.33
2019-05-30T08:07:09.240Z,2.25
2019-05-30T08:09:39.300Z,2.00
2019-05-30T08:12:08.750Z,3.00
2019-05-30T08:14:38.193Z,2.72
2019-05-30T08:17:07.672Z,2.50
2019-05-30T08:19:38.175Z,2.22
2019-05-30T08:22:07.987Z,2.58
2019-05-30T08:24:38.615Z,2.85
2019-05-30T08:27:08.411Z,2.42
2019-05-30T08:29:38.567Z,2.67
2019-05-30T08:32:08.123Z,2.45
2019-05-30T08:34:38.739Z,2.80
2019-05-30T08:37:08.426Z,2.57
2019-05-30T08:39:37.857Z,2.75
2019-05-30T08:42:07.330Z,2.60
2019-05-30T08:44:37.897Z,2.50
2019-05-30T08:47:07.535Z,2.37
2019-05-30T08:49:38.174Z,2.45
2019-05-30T08:52:07.745Z,2.10
2019-05-30T08:54:38.442Z,2.70
2019-05-30T08:57:08.234Z,2.83
2019-05-30T08:59:38.631Z,2.85
2019-05-30T09:02:09.314Z,2.27
2019-05-30T09:04:39.929Z,2.22
2019-05-30T09:07:09.398Z,2.17
2019-05-30T09:09:40.063Z,2.22
2019-05-30T09:12:09.611Z,2.35
2019-05-30T09:14:39.624Z,2.50
2019-05-30T09:17:10.146Z,2.22
2019-05-30T09:19:40.361Z,2.40
2019-05-30T09:22:10.682Z,2.65
2019-05-30T09:24:40.509Z,2.35
2019-05-30T09:27:10.575Z,2.98
2019-05-30T09:29:41.668Z,2.40
2019-05-30T09:32:11.106Z,2.40
2019-05-30T09:34:42.025Z,2.37
2019-05-30T09:37:11.638Z,2.37
2019-05-30T09:39:41.576Z,2.62
2019-05-30T09:42:11.163Z,2.33
2019-05-30T09:44:41.927Z,2.92
2019-05-30T09:47:11.748Z,2.60
2019-05-30T09:49:41.861Z,2.62
2019-05-30T09:52:12.296Z,2.25
2019-05-30T09:54:42.996Z,2.02
2019-05-30T09:57:12.837Z,2.50
2019-05-30T09:59:43.579Z,2.40
2019-05-30T10:02:13.378Z,2.33
2019-05-30T10:04:45.139Z,2.30
2019-05-30T10:07:14.886Z,1.77
2019-05-30T10:09:45.629Z,2.40
2019-05-30T10:12:15.586Z,2.52
2019-05-30T10:14:45.641Z,2.08
2019-05-30T10:17:16.123Z,1.80
2019-05-30T10:19:47.050Z,2.15
2019-05-30T10:22:16.721Z,2.20
2019-05-30T10:24:47.528Z,1.87
2019-05-30T10:27:17.057Z,2.30
2019-05-30T10:29:47.694Z,1.92
2019-05-30T10:32:17.106Z,1.90
2019-05-30T10:34:47.864Z,2.45
2019-05-30T10:37:17.518Z,2.05
2019-05-30T10:39:47.280Z,2.12
2019-05-30T10:42:17.073Z,1.80
2019-05-30T10:44:48.288Z,1.45
2019-05-30T10:47:17.838Z,1.50
2019-05-30T10:49:48.571Z,1.80
2019-05-30T10:52:18.366Z,1.85
2019-05-30T10:54:47.965Z,1.37
2019-05-30T10:57:17.377Z,2.00
2019-05-30T10:59:47.835Z,1.60
2019-05-30T11:02:17.913Z,1.70
2019-05-30T11:04:48.941Z,1.92
2019-05-30T11:07:30.700Z,2.27
2019-05-30T11:10:08.747Z,1.77
2019-05-30T11:12:38.196Z,1.87
2019-05-30T11:15:08.101Z,2.22
2019-05-30T11:17:37.551Z,2.40
2019-05-30T11:20:07.442Z,2.37
2019-05-30T11:22:36.885Z,2.30
2019-05-30T11:25:06.593Z,2.15
2019-05-30T11:27:36.041Z,1.92
2019-05-30T11:30:08.665Z,1.87
2019-05-30T11:32:38.114Z,1.82
2019-05-30T11:35:07.751Z,2.60
2019-05-30T11:37:37.198Z,2.33
2019-05-30T11:40:08.269Z,2.10
2019-05-30T11:42:37.709Z,2.12
2019-05-30T11:45:07.814Z,2.50
2019-05-30T11:47:37.270Z,2.15
2019-05-30T11:50:07.597Z,2.52
2019-05-30T11:52:37.022Z,2.55
2019-05-30T11:55:07.435Z,2.42
2019-05-30T11:57:36.877Z,2.50
2019-05-30T12:00:08.326Z,2.80
2019-05-30T12:02:37.763Z,3.12
2019-05-30T12:05:07.969Z,2.83
2019-05-30T12:07:37.416Z,2.87
2019-05-30T12:10:08.123Z,3.20
2019-05-30T12:12:37.642Z,3.10
2019-05-30T12:15:10.272Z,2.75
2019-05-30T12:17:39.719Z,2.92
2019-05-30T12:20:09.829Z,3.00
2019-05-30T12:22:39.274Z,3.10
2019-05-30T12:25:08.877Z,3.17
2019-05-30T12:27:38.324Z,3.17
2019-05-30T12:30:09.932Z,3.10
2019-05-30T12:32:39.382Z,3.35
2019-05-30T12:35:10.664Z,3.40
2019-05-30T12:37:54.072Z,3.58
2019-05-30T12:40:13.109Z,3.35
2019-05-30T12:42:42.562Z,3.58
2019-05-30T12:45:12.762Z,3.77
2019-05-30T12:47:42.221Z,3.55
2019-05-30T12:50:12.426Z,3.58
2019-05-30T12:52:41.874Z,3.60
2019-05-30T12:55:11.483Z,4.30
2019-05-30T12:57:40.930Z,3.70
2019-05-30T13:00:17.989Z,3.05
2019-05-30T13:02:44.419Z,4.12
2019-05-30T13:05:14.414Z,4.00
2019-05-30T13:07:43.871Z,4.37
2019-05-30T13:10:13.981Z,4.28
2019-05-30T13:12:43.443Z,4.67
2019-05-30T13:15:13.536Z,4.37
2019-05-30T13:17:43.152Z,4.75
2019-05-30T13:20:14.462Z,5.33
2019-05-30T13:22:44.057Z,4.90
2019-05-30T13:25:16.359Z,5.28
2019-05-30T13:27:46.878Z,4.97
2019-05-30T13:30:16.886Z,5.08
2019-05-30T13:32:46.333Z,4.70
2019-05-30T13:35:16.043Z,4.75
2019-05-30T13:37:45.481Z,4.55
2019-05-30T13:40:24.777Z,4.80
2019-05-30T13:42:46.518Z,5.22
2019-05-30T13:45:16.057Z,5.72
2019-05-30T13:47:45.571Z,7.15
2019-05-30T13:50:16.633Z,8.65
2019-05-30T13:52:46.077Z,8.63
2019-05-30T13:55:15.997Z,8.90
2019-05-30T13:57:45.451Z,9.05
2019-05-30T14:00:16.525Z,8.45
2019-05-30T14:02:45.980Z,8.33
2019-05-30T14:05:16.161Z,9.03
2019-05-30T14:07:45.674Z,9.10
2019-05-30T14:10:16.260Z,9.50
2019-05-30T14:12:45.773Z,8.88
2019-05-30T14:15:15.881Z,9.63
2019-05-30T14:17:45.602Z,8.75
2019-05-30T14:20:15.819Z,9.23
2019-05-30T14:22:45.266Z,8.28
2019-05-30T14:25:17.653Z,7.80
2019-05-30T14:27:47.097Z,8.33
2019-05-30T14:30:16.910Z,8.03
2019-05-30T14:32:46.359Z,8.08
2019-05-30T14:35:15.957Z,7.60
2019-05-30T14:37:45.411Z,8.48
2019-05-30T14:40:16.026Z,8.05
2019-05-30T14:42:45.485Z,8.30
2019-05-30T14:45:17.062Z,7.03
2019-05-30T14:47:46.545Z,9.10
2019-05-30T14:50:22.698Z,9.98
2019-05-30T14:52:52.212Z,9.33
2019-05-30T14:55:21.749Z,8.55
2019-05-30T14:57:51.229Z,9.33
2019-05-30T15:00:21.022Z,9.65
2019-05-30T15:02:50.558Z,7.85
2019-05-30T15:05:20.073Z,8.53
2019-05-30T15:07:49.558Z,8.25
2019-05-30T15:10:19.143Z,8.05
2019-05-30T15:12:48.615Z,8.55
2019-05-30T15:15:18.880Z,8.73
2019-05-30T15:17:48.381Z,8.03
2019-05-30T15:20:18.304Z,8.00
2019-05-30T15:22:47.789Z,8.43
2019-05-30T15:25:18.774Z,8.25
2019-05-30T15:27:48.252Z,7.55
2019-05-30T15:30:18.036Z,8.73
2019-05-30T15:32:47.509Z,8.08
2019-05-30T15:35:19.089Z,8.93
2019-05-30T15:37:48.790Z,9.98
2019-05-30T15:40:18.482Z,9.40
2019-05-30T15:42:47.950Z,9.95
2019-05-30T15:45:18.237Z,10.72
2019-05-30T15:47:47.826Z,10.63
2019-05-30T15:50:18.763Z,9.48
2019-05-30T15:52:48.499Z,9.75
2019-05-30T15:55:19.264Z,10.55
2019-05-30T15:57:49.097Z,11.85
2019-05-30T16:00:19.978Z,12.70
2019-05-30T16:02:49.472Z,13.43
2019-05-30T16:05:19.171Z,14.53
2019-05-30T16:07:48.641Z,14.25
2019-05-30T16:10:18.986Z,13.50
2019-05-30T16:12:48.513Z,14.30
2019-05-30T16:15:19.493Z,14.83
2019-05-30T16:17:49.082Z,14.90
2019-05-30T16:20:19.989Z,14.55
2019-05-30T16:22:49.556Z,14.47
2019-05-30T16:25:19.676Z,15.20
2019-05-30T16:27:49.254Z,14.00
2019-05-30T16:30:23.520Z,13.98
2019-05-30T16:32:50.010Z,13.00
2019-05-30T16:35:20.190Z,13.90
2019-05-30T16:37:49.713Z,13.68
2019-05-30T16:40:20.247Z,12.90
2019-05-30T16:42:49.902Z,12.15
2019-05-30T16:45:22.244Z,11.57
2019-05-30T16:47:50.638Z,11.50
2019-05-30T16:50:23.374Z,12.43
2019-05-30T16:52:53.913Z,12.98
2019-05-30T16:55:23.575Z,11.30
2019-05-30T16:57:52.995Z,12.15
2019-05-30T17:00:23.769Z,11.38
2019-05-30T17:02:53.297Z,11.08
2019-05-30T17:05:22.753Z,11.35
2019-05-30T17:07:52.232Z,11.57
2019-05-30T17:10:28.778Z,11.53
2019-05-30T17:12:53.127Z,10.82
2019-05-30T17:15:23.900Z,9.93
2019-05-30T17:17:53.526Z,10.20
2019-05-30T17:20:23.113Z,10.75
2019-05-30T17:22:52.588Z,9.58
2019-05-30T17:25:23.030Z,10.60
2019-05-30T17:27:52.958Z,9.93
2019-05-30T17:30:23.685Z,9.80
2019-05-30T17:32:54.382Z,9.55
2019-05-30T17:35:24.163Z,10.30
2019-05-30T17:37:53.602Z,9.05
2019-05-30T17:40:40.210Z,8.85
2019-05-30T17:42:54.289Z,9.03
2019-05-30T17:45:25.145Z,10.72
2019-05-30T17:48:02.807Z,10.88
2019-05-30T17:50:25.903Z,11.08
2019-05-30T17:52:55.372Z,12.10
2019-05-30T17:55:25.915Z,11.57
2019-05-30T17:57:55.501Z,12.28
2019-05-30T18:00:26.115Z,12.13
2019-05-30T18:02:56.210Z,10.75
2019-05-30T18:05:26.733Z,11.65
2019-05-30T18:07:56.399Z,12.58
2019-05-30T18:10:26.864Z,12.40
2019-05-30T18:12:56.499Z,12.60
2019-05-30T18:15:28.027Z,12.05
2019-05-30T18:17:57.206Z,13.08
2019-05-30T18:20:27.358Z,13.05
2019-05-30T18:22:56.991Z,12.65
2019-05-30T18:25:27.577Z,12.30
2019-05-30T18:27:57.130Z,12.55
2019-05-30T18:30:41.474Z,13.15
2019-05-30T18:33:11.183Z,11.88
2019-05-30T18:35:40.778Z,12.90
2019-05-30T18:38:10.326Z,10.58
2019-05-30T18:40:39.848Z,9.93
2019-05-30T18:43:09.295Z,9.73
2019-05-30T18:45:41.170Z,8.53
2019-05-30T18:48:11.351Z,9.30
2019-05-30T18:50:41.066Z,7.87
2019-05-30T18:53:10.578Z,8.38
2019-05-30T18:55:40.121Z,7.53
2019-05-30T18:58:10.992Z,8.33
2019-05-30T19:00:43.862Z,8.20
2019-05-30T19:03:13.921Z,8.10
2019-05-30T19:05:48.696Z,8.25
2019-05-30T19:08:15.045Z,9.15
2019-05-30T19:10:44.568Z,8.80
2019-05-30T19:13:14.089Z,8.98
2019-05-30T19:15:43.629Z,8.50
2019-05-30T19:18:14.130Z,9.03
2019-05-30T19:20:43.606Z,8.88
2019-05-30T19:23:13.054Z,8.78
2019-05-30T19:25:43.562Z,8.75
2019-05-30T19:28:13.078Z,9.90
2019-05-30T19:30:42.556Z,10.23
2019-05-30T19:33:12.014Z,10.38
2019-05-30T19:35:41.478Z,10.18
2019-05-30T19:38:10.927Z,9.88
2019-05-30T19:40:41.472Z,10.95
2019-05-30T19:43:12.006Z,11.25
2019-05-30T19:45:41.478Z,11.08
2019-05-30T19:48:10.947Z,10.65
2019-05-30T19:50:40.408Z,11.88
2019-05-30T19:53:09.866Z,12.70
2019-05-30T19:55:39.527Z,12.55
2019-05-30T19:58:09.077Z,13.35
2019-05-30T20:00:55.580Z,13.18
2019-05-30T20:03:09.638Z,13.43
2019-05-30T20:05:39.170Z,13.03
2019-05-30T20:08:08.699Z,13.73
2019-05-30T20:10:39.134Z,13.13
2019-05-30T20:13:08.730Z,13.20
2019-05-30T20:15:39.564Z,13.20
2019-05-30T20:18:09.139Z,13.25
2019-05-30T20:20:56.220Z,13.95
2019-05-30T20:23:09.717Z,13.55
2019-05-30T20:25:42.467Z,13.88
2019-05-30T20:28:10.343Z,13.00
2019-05-30T20:30:39.805Z,13.93
2019-05-30T20:33:09.331Z,14.35
2019-05-30T20:35:40.058Z,14.87
2019-05-30T20:38:10.990Z,15.40
2019-05-30T20:40:40.944Z,15.53
2019-05-30T20:43:11.506Z,14.47
2019-05-30T20:45:47.031Z,14.70
2019-05-30T20:48:12.050Z,14.27
2019-05-30T20:50:41.533Z,14.63
2019-05-30T20:53:11.051Z,14.98
2019-05-30T20:55:40.526Z,15.07
2019-05-30T20:58:09.991Z,15.10
2019-05-30T21:00:40.492Z,15.83
2019-05-30T21:03:11.165Z,15.83
2019-05-30T21:05:41.990Z,15.70
2019-05-30T21:08:12.610Z,16.07
2019-05-30T21:10:43.628Z,15.73
2019-05-30T21:13:13.073Z,15.08
2019-05-30T21:15:44.089Z,17.40
2019-05-30T21:18:13.541Z,17.50
2019-05-30T21:20:44.080Z,18.53
2019-05-30T21:23:13.574Z,20.13
2019-05-30T21:25:43.199Z,19.42
2019-05-30T21:28:12.607Z,20.47
2019-05-30T21:30:43.267Z,16.97
2019-05-30T21:33:12.905Z,17.23
2019-05-30T21:35:43.768Z,16.80
2019-05-30T21:38:13.326Z,14.95
2019-05-30T21:40:42.797Z,15.28
2019-05-30T21:43:12.258Z,14.75
2019-05-30T21:45:42.540Z,14.73
2019-05-30T21:48:12.089Z,16.57
2019-05-30T21:50:44.466Z,16.70
2019-05-30T21:53:12.710Z,18.80
2019-05-30T21:55:42.189Z,29.07
2019-05-30T21:58:11.638Z,58.63
2019-05-30T22:00:50.853Z,61.00
2019-05-30T22:03:22.176Z,47.67
2019-05-30T22:05:52.075Z,46.83
2019-05-30T22:08:21.707Z,27.35
2019-05-30T22:10:51.771Z,33.33
2019-05-30T22:13:21.405Z,32.90
2019-05-30T22:15:52.171Z,40.50
2019-05-30T22:18:21.765Z,35.27
2019-05-30T22:20:52.122Z,41.83
2019-05-30T22:23:22.757Z,56.97
2019-05-30T22:25:53.040Z,47.30
2019-05-30T22:28:22.556Z,44.57
2019-05-30T22:30:52.840Z,29.73
2019-05-30T22:33:22.302Z,31.40
2019-05-30T22:35:51.774Z,32.93
2019-05-30T22:38:21.244Z,26.60
2019-05-30T22:40:51.982Z,25.02
2019-05-30T22:43:25.395Z,22.77
2019-05-30T22:45:52.567Z,23.63
2019-05-30T22:48:22.099Z,22.83
2019-05-30T22:50:52.789Z,20.53
2019-05-30T22:53:23.508Z,19.27
2019-05-30T22:55:53.605Z,19.80
2019-05-30T22:58:23.233Z,19.42
2019-05-30T23:00:54.000Z,17.67
2019-05-30T23:03:23.564Z,17.93
2019-05-30T23:05:53.298Z,18.57
2019-05-30T23:08:22.894Z,18.23
2019-05-30T23:10:52.353Z,17.73
2019-05-30T23:13:22.003Z,17.93
2019-05-30T23:15:52.715Z,16.67
2019-05-30T23:18:22.383Z,15.13
2019-05-30T23:20:52.750Z,15.98
2019-05-30T23:23:22.317Z,14.58
2019-05-30T23:25:53.340Z,14.65
2019-05-30T23:28:23.897Z,14.78
2019-05-30T23:30:53.946Z,14.07
2019-05-30T23:33:23.429Z,14.10
2019-05-30T23:35:52.884Z,14.53
2019-05-30T23:38:22.362Z,14.23
2019-05-30T23:40:52.870Z,13.55
2019-05-30T23:43:22.593Z,11.68
2019-05-30T23:45:53.238Z,13.03
2019-05-30T23:48:22.923Z,14.60
2019-05-30T23:50:52.371Z,14.80
2019-05-30T23:53:21.841Z,15.20
2019-05-30T23:55:52.248Z,14.98
2019-05-30T23:58:21.785Z,14.07
